Time;durP1;ratioP1;P1;durP2;ratioP2;P2;SDS_P1;SDS_P2;PMS_P1;PMS_P2;Temp;Humidity;BMP_temperature;BMP_pressure;BME280_temperature;BME280_humidity;BME280_pressure;Samples;Min_cycle;Max_cycle;Signal;HPM_P1;HPM_P2
2022/05/27 00:00:11;;;;;;;5.60;5.30;;;13.60;99.90;;;;;;5020074;28;20203;-76
2022/05/27 00:02:38;;;;;;;5.50;5.10;;;13.60;99.90;;;;;;5016295;28;20661;-75
2022/05/27 00:05:06;;;;;;;5.60;5.10;;;13.60;99.90;;;;;;5023127;28;20277;-76
2022/05/27 00:07:32;;;;;;;5.50;5.10;;;13.60;99.90;;;;;;5018598;28;20219;-76
2022/05/27 00:09:59;;;;;;;5.30;5.00;;;13.60;99.90;;;;;;5024790;28;20189;-76
2022/05/27 00:12:26;;;;;;;5.30;5.00;;;13.60;99.90;;;;;;5021803;28;20234;-76
2022/05/27 00:14:53;;;;;;;5.67;5.30;;;13.50;99.90;;;;;;5019633;28;20216;-75
2022/05/27 00:17:21;;;;;;;6.20;5.70;;;13.50;99.90;;;;;;5023812;28;20254;-76
2022/05/27 00:19:48;;;;;;;6.00;5.60;;;13.40;99.90;;;;;;5021695;28;20184;-76
2022/05/27 00:22:15;;;;;;;6.30;5.87;;;13.30;99.90;;;;;;5019285;28;20204;-76
2022/05/27 00:24:42;;;;;;;6.63;6.03;;;13.30;99.90;;;;;;5022154;28;20258;-76
2022/05/27 00:27:09;;;;;;;6.17;5.77;;;13.20;99.90;;;;;;5019530;28;20580;-75
2022/05/27 00:29:36;;;;;;;6.20;5.80;;;13.10;99.90;;;;;;5021258;28;20188;-76
2022/05/27 00:32:03;;;;;;;6.67;6.17;;;13.10;99.90;;;;;;5020860;28;20199;-75
2022/05/27 00:34:31;;;;;;;6.40;6.00;;;13.00;99.90;;;;;;5016903;28;20262;-76
2022/05/27 00:36:58;;;;;;;6.57;6.07;;;13.00;99.90;;;;;;5017862;28;20235;-76
2022/05/27 00:39:25;;;;;;;6.47;5.97;;;13.00;99.90;;;;;;5021109;28;20206;-76
2022/05/27 00:41:52;;;;;;;6.60;6.10;;;12.90;99.90;;;;;;5021889;28;20243;-75
2022/05/27 00:44:18;;;;;;;6.40;5.90;;;12.90;99.90;;;;;;5020366;28;20213;-75
2022/05/27 00:46:46;;;;;;;6.53;6.03;;;12.90;99.90;;;;;;5020806;28;20212;-76
2022/05/27 00:49:18;;;;;;;6.50;5.90;;;12.90;99.90;;;;;;5022440;28;20195;-76
2022/05/27 00:51:50;;;;;;;6.07;5.67;;;12.90;99.90;;;;;;5017931;28;20246;-74
2022/05/27 00:54:20;;;;;;;5.90;5.50;;;12.90;99.90;;;;;;5016325;28;20282;-77
2022/05/27 00:56:52;;;;;;;5.67;5.30;;;12.90;99.90;;;;;;5018011;28;20250;-76
2022/05/27 00:59:21;;;;;;;5.33;5.03;;;12.90;99.90;;;;;;5021369;28;20191;-76
2022/05/27 01:01:49;;;;;;;5.80;5.40;;;12.90;99.90;;;;;;5021198;28;20191;-76
2022/05/27 01:04:16;;;;;;;6.27;5.63;;;12.90;99.90;;;;;;5019684;28;20763;-75
2022/05/27 01:06:44;;;;;;;6.00;5.60;;;12.80;99.90;;;;;;5020450;28;20220;-75
2022/05/27 01:09:13;;;;;;;6.10;5.70;;;12.80;99.90;;;;;;5022488;28;20199;-76
2022/05/27 01:12:04;;;;;;;5.90;5.50;;;12.70;99.90;;;;;;5023393;28;20188;-76
2022/05/27 01:14:39;;;;;;;6.13;5.73;;;12.60;99.90;;;;;;5014907;28;20223;-76
2022/05/27 01:17:12;;;;;;;6.00;5.60;;;12.60;99.90;;;;;;5015616;28;20260;-75
2022/05/27 01:20:21;;;;;;;6.70;6.10;;;12.60;99.90;;;;;;5011410;28;20611;-76
2022/05/27 01:23:31;;;;;;;6.20;5.80;;;12.50;99.90;;;;;;5013214;28;20211;-76
2022/05/27 01:26:52;;;;;;;6.50;6.00;;;12.50;99.90;;;;;;5014725;28;20659;-76
2022/05/27 01:29:50;;;;;;;6.77;6.20;;;12.50;99.90;;;;;;5018552;28;20242;-75
2022/05/27 01:32:26;;;;;;;6.60;6.10;;;12.50;99.90;;;;;;5021537;28;20257;-76
2022/05/27 01:35:02;;;;;;;6.13;5.73;;;12.50;99.90;;;;;;5016756;28;20227;-76
2022/05/27 01:37:45;;;;;;;6.37;5.97;;;12.50;99.90;;;;;;5021139;28;20187;-75
2022/05/27 01:40:22;;;;;;;6.10;5.70;;;12.50;99.90;;;;;;5024245;28;20206;-76
2022/05/27 01:42:56;;;;;;;6.23;5.83;;;12.50;99.90;;;;;;5020741;28;20651;-75
2022/05/27 01:45:28;;;;;;;6.20;5.80;;;12.50;99.90;;;;;;5016240;28;20271;-75
2022/05/27 01:48:01;;;;;;;5.73;5.33;;;12.50;99.90;;;;;;5018646;28;20223;-76
2022/05/27 01:50:34;;;;;;;5.90;5.50;;;12.50;99.90;;;;;;5026756;28;20203;-76
2022/05/27 01:53:16;;;;;;;6.17;5.77;;;12.50;99.90;;;;;;5014160;28;20633;-75
2022/05/27 01:55:48;;;;;;;5.90;5.50;;;12.50;99.90;;;;;;5011597;28;20230;-76
2022/05/27 01:58:20;;;;;;;6.40;6.00;;;12.50;99.90;;;;;;5026398;28;20696;-75
2022/05/27 02:00:49;;;;;;;5.83;5.53;;;12.50;99.90;;;;;;5023381;28;20250;-75
2022/05/27 02:03:22;;;;;;;6.37;5.87;;;12.60;99.90;;;;;;5022377;28;20558;-76
2022/05/27 02:05:53;;;;;;;6.60;6.00;;;12.50;99.90;;;;;;5025495;28;20203;-76
2022/05/27 02:08:22;;;;;;;5.90;5.50;;;12.50;99.90;;;;;;5025498;28;20252;-75
2022/05/27 02:10:54;;;;;;;6.37;5.90;;;12.50;99.90;;;;;;5025220;28;20198;-76
2022/05/27 02:13:26;;;;;;;6.10;5.70;;;12.50;99.90;;;;;;5024183;28;20539;-75
2022/05/27 02:15:54;;;;;;;6.03;5.67;;;12.50;99.90;;;;;;5023420;28;20191;-75
2022/05/27 02:18:26;;;;;;;5.83;5.53;;;12.40;99.90;;;;;;5023218;28;20222;-76
2022/05/27 02:20:57;;;;;;;6.40;5.90;;;12.40;99.90;;;;;;5023396;28;20247;-76
2022/05/27 02:23:29;;;;;;;6.20;5.80;;;12.40;99.90;;;;;;5025440;28;20196;-75
2022/05/27 02:25:58;;;;;;;5.77;5.47;;;12.40;99.90;;;;;;5022162;28;20195;-76
2022/05/27 02:28:30;;;;;;;6.30;5.90;;;12.40;99.90;;;;;;5017527;28;20196;-76
2022/05/27 02:31:01;;;;;;;6.50;6.10;;;12.30;99.90;;;;;;5019023;28;20234;-75
2022/05/27 02:36:24;;;;;;;6.27;5.77;;;12.30;99.90;;;;;;5022629;28;20198;-76
2022/05/27 02:38:51;;;;;;;6.20;5.80;;;12.30;99.90;;;;;;5022588;28;20194;-76
2022/05/27 02:41:24;;;;;;;6.17;5.80;;;12.30;99.90;;;;;;5022243;28;20192;-76
2022/05/27 02:44:03;;;;;;;6.10;5.70;;;12.30;99.90;;;;;;5022274;28;20285;-76
2022/05/27 02:46:38;;;;;;;6.30;5.90;;;12.30;99.90;;;;;;5023477;28;20220;-77
2022/05/27 02:49:16;;;;;;;6.17;5.77;;;12.30;99.90;;;;;;5025589;28;20682;-77
2022/05/27 02:51:51;;;;;;;7.40;6.10;;;12.30;99.90;;;;;;5005351;28;20271;-76
2022/05/27 02:54:24;;;;;;;6.40;6.00;;;12.30;99.90;;;;;;5004674;28;20619;-76
2022/05/27 02:56:58;;;;;;;6.63;6.10;;;12.20;99.90;;;;;;5024969;28;20240;-76
2022/05/27 02:59:27;;;;;;;6.40;6.00;;;12.20;99.90;;;;;;5023136;28;20198;-76
2022/05/27 03:01:54;;;;;;;6.70;6.30;;;12.20;99.90;;;;;;5027057;28;20202;-77
2022/05/27 03:04:22;;;;;;;7.00;6.50;;;12.20;99.90;;;;;;5020524;28;20307;-76
2022/05/27 03:07:00;;;;;;;6.40;6.00;;;12.10;99.90;;;;;;5025736;28;20268;-76
2022/05/27 03:09:38;;;;;;;6.30;5.80;;;12.10;99.90;;;;;;5014838;28;20198;-77
2022/05/27 03:12:13;;;;;;;6.43;5.87;;;12.10;99.90;;;;;;5028216;28;20204;-77
2022/05/27 03:14:53;;;;;;;6.60;6.20;;;12.10;99.90;;;;;;5020210;28;20577;-75
2022/05/27 03:17:31;;;;;;;6.10;5.70;;;12.00;99.90;;;;;;5021727;28;20198;-76
2022/05/27 03:20:21;;;;;;;6.33;5.97;;;12.10;99.90;;;;;;5019348;28;20199;-76
2022/05/27 03:23:06;;;;;;;7.57;6.87;;;12.00;99.90;;;;;;5006782;28;20199;-77
2022/05/27 03:25:38;;;;;;;7.17;6.70;;;12.00;99.90;;;;;;5015208;28;20246;-77
2022/05/27 03:28:12;;;;;;;7.37;6.80;;;12.00;99.90;;;;;;5021595;28;20218;-76
2022/05/27 03:30:50;;;;;;;6.70;6.20;;;11.90;99.90;;;;;;5020689;28;20198;-76
2022/05/27 03:33:23;;;;;;;6.80;6.30;;;12.00;99.90;;;;;;5021271;28;20194;-77
2022/05/27 03:35:56;;;;;;;7.10;6.60;;;12.00;99.90;;;;;;5009419;28;20450;-77
2022/05/27 03:38:31;;;;;;;7.20;6.70;;;12.00;99.90;;;;;;5020363;28;20193;-76
2022/05/27 03:41:04;;;;;;;7.23;6.80;;;11.90;99.90;;;;;;5020321;28;20203;-76
2022/05/27 03:43:34;;;;;;;7.20;6.60;;;12.00;99.90;;;;;;5021798;28;20293;-78
2022/05/27 03:46:03;;;;;;;7.20;6.70;;;12.00;99.90;;;;;;5013376;28;20211;-78
2022/05/27 03:48:32;;;;;;;6.93;6.33;;;12.10;99.90;;;;;;5031436;28;20673;-77
2022/05/27 03:51:07;;;;;;;7.13;6.63;;;12.10;99.90;;;;;;5032971;28;20190;-77
2022/05/27 03:56:18;;;;;;;7.17;6.67;;;12.10;99.90;;;;;;5030212;28;20185;-77
2022/05/27 03:58:45;;;;;;;6.60;6.10;;;12.20;99.90;;;;;;5028242;28;20221;-78
2022/05/27 04:01:11;;;;;;;7.10;6.60;;;12.20;99.90;;;;;;5020899;28;20199;-78
2022/05/27 04:03:38;;;;;;;6.37;5.97;;;12.20;99.90;;;;;;5023827;28;20267;-77
2022/05/27 04:06:06;;;;;;;7.00;6.43;;;12.30;99.90;;;;;;5021527;28;20734;-76
2022/05/27 04:08:33;;;;;;;6.60;6.20;;;12.30;99.90;;;;;;5023747;28;20625;-77
2022/05/27 04:11:00;;;;;;;6.77;6.27;;;12.40;99.90;;;;;;5021918;28;20618;-78
2022/05/27 04:13:27;;;;;;;6.60;6.10;;;12.50;99.90;;;;;;5016180;28;20297;-77
2022/05/27 04:15:54;;;;;;;6.30;5.90;;;12.50;99.90;;;;;;5024407;28;20198;-77
2022/05/27 04:18:21;;;;;;;6.20;5.70;;;12.60;99.90;;;;;;5019583;28;20252;-77
2022/05/27 04:20:47;;;;;;;6.17;5.63;;;12.60;99.90;;;;;;5023000;28;20195;-79
2022/05/27 04:23:15;;;;;;;6.60;6.10;;;12.70;99.90;;;;;;5025504;28;20337;-77
2022/05/27 04:25:46;;;;;;;6.40;6.00;;;12.80;99.90;;;;;;5024284;28;20855;-77
2022/05/27 04:28:13;;;;;;;6.60;6.10;;;12.90;99.90;;;;;;5021897;28;20296;-78
2022/05/27 04:30:41;;;;;;;6.23;5.83;;;13.00;99.90;;;;;;5016415;28;20269;-78
2022/05/27 04:33:08;;;;;;;6.07;5.73;;;13.10;99.90;;;;;;5016954;28;20200;-79
2022/05/27 04:35:35;;;;;;;5.50;4.60;;;13.20;99.90;;;;;;5024199;28;20696;-77
2022/05/27 04:38:02;;;;;;;6.37;5.97;;;13.30;99.90;;;;;;5025464;28;20192;-78
2022/05/27 04:40:31;;;;;;;6.70;6.20;;;13.40;99.90;;;;;;5027552;28;20234;-77
2022/05/27 04:42:58;;;;;;;3.33;2.90;;;13.50;99.90;;;;;;5020709;28;20192;-77
2022/05/27 04:45:25;;;;;;;2.90;2.70;;;13.60;99.90;;;;;;5028101;28;20634;-79
2022/05/27 04:47:52;;;;;;;3.10;2.90;;;13.70;99.90;;;;;;5019610;28;20208;-78
2022/05/27 04:50:20;;;;;;;2.33;2.20;;;13.70;99.90;;;;;;5027271;28;20206;-79
2022/05/27 04:52:47;;;;;;;6.17;5.67;;;13.90;99.90;;;;;;5021843;28;20273;-77
2022/05/27 04:55:16;;;;;;;2.13;2.03;;;14.00;99.90;;;;;;5019500;28;20283;-77
2022/05/27 04:57:47;;;;;;;2.50;2.30;;;14.20;99.90;;;;;;5026019;28;20244;-77
2022/05/27 05:00:17;;;;;;;3.33;2.37;;;14.50;99.90;;;;;;5026360;28;20203;-77
2022/05/27 05:02:44;;;;;;;2.80;2.60;;;14.70;99.90;;;;;;5024887;28;20600;-78
2022/05/27 05:05:13;;;;;;;2.70;2.50;;;15.00;99.90;;;;;;5020225;28;20226;-78
2022/05/27 05:07:41;;;;;;;2.50;2.30;;;15.20;99.90;;;;;;5026780;28;20254;-79
2022/05/27 05:10:09;;;;;;;2.73;2.50;;;15.30;99.90;;;;;;5014044;28;20580;-79
2022/05/27 05:12:36;;;;;;;2.43;2.27;;;15.30;99.90;;;;;;5012001;28;20193;-78
2022/05/27 05:15:05;;;;;;;2.70;2.50;;;15.40;99.90;;;;;;5025375;28;20269;-77
2022/05/27 05:17:32;;;;;;;4.10;2.20;;;15.40;99.90;;;;;;5022569;28;20245;-78
2022/05/27 05:19:59;;;;;;;4.33;2.40;;;15.60;99.90;;;;;;5025068;28;20221;-78
2022/05/27 05:22:25;;;;;;;2.77;2.13;;;16.00;99.90;;;;;;5017334;28;20253;-77
2022/05/27 05:24:54;;;;;;;2.50;2.30;;;16.30;99.90;;;;;;5022350;28;20773;-79
2022/05/27 05:27:21;;;;;;;2.27;2.17;;;16.40;99.90;;;;;;5023181;28;20220;-79
2022/05/27 05:29:48;;;;;;;2.43;2.27;;;16.40;99.90;;;;;;5026235;28;20199;-79
2022/05/27 05:32:16;;;;;;;3.93;2.47;;;16.50;99.90;;;;;;5016995;28;20199;-78
2022/05/27 05:34:42;;;;;;;2.87;2.20;;;16.40;99.90;;;;;;5025965;28;20765;-78
2022/05/27 05:37:09;;;;;;;2.97;2.13;;;16.60;99.90;;;;;;5031160;28;20674;-78
2022/05/27 05:39:37;;;;;;;2.50;2.30;;;17.10;99.90;;;;;;5023717;28;20582;-78
2022/05/27 05:42:06;;;;;;;2.93;2.07;;;17.40;99.90;;;;;;5027348;28;20202;-77
2022/05/27 05:44:34;;;;;;;2.80;2.20;;;17.90;99.90;;;;;;5026256;28;20211;-79
2022/05/27 05:47:01;;;;;;;6.00;5.50;;;18.20;99.90;;;;;;5027157;28;20188;-79
2022/05/27 05:49:29;;;;;;;5.00;4.60;;;18.60;99.90;;;;;;5025959;28;20247;-78
2022/05/27 05:51:59;;;;;;;4.40;3.10;;;18.90;99.90;;;;;;5027043;28;20247;-79
2022/05/27 05:54:27;;;;;;;2.73;2.53;;;18.60;99.90;;;;;;5023706;28;20635;-79
2022/05/27 05:56:54;;;;;;;3.90;3.60;;;18.30;99.90;;;;;;5024433;28;20190;-79
2022/05/27 05:59:22;;;;;;;4.40;3.83;;;18.00;99.90;;;;;;5023044;28;20198;-78
2022/05/27 06:01:50;;;;;;;5.00;4.60;;;17.80;99.90;;;;;;5025924;28;20207;-79
2022/05/27 06:04:16;;;;;;;4.73;4.33;;;17.60;99.90;;;;;;5023044;28;20259;-78
2022/05/27 06:06:45;;;;;;;4.33;4.03;;;17.40;99.90;;;;;;5023901;28;20196;-77
2022/05/27 06:09:11;;;;;;;5.17;4.67;;;17.30;99.90;;;;;;5023641;28;20247;-78
2022/05/27 06:11:38;;;;;;;4.33;4.03;;;17.20;99.90;;;;;;5029314;28;20198;-77
2022/05/27 06:14:06;;;;;;;5.37;4.47;;;16.90;99.90;;;;;;5021950;28;20282;-79
2022/05/27 06:16:33;;;;;;;2.40;2.20;;;16.80;99.90;;;;;;5030097;28;20193;-77
2022/05/27 06:19:00;;;;;;;2.73;2.33;;;16.80;99.90;;;;;;5025946;28;20729;-78
2022/05/27 06:21:27;;;;;;;4.20;3.80;;;16.70;99.90;;;;;;5024026;28;20208;-79
2022/05/27 06:26:59;;;;;;;5.30;4.90;;;16.80;99.90;;;;;;5019526;28;20188;-79
2022/05/27 06:34:57;;;;;;;2.50;2.30;;;16.90;99.90;;;;;;5016526;28;20339;-81
2022/05/27 06:37:25;;;;;;;2.40;2.20;;;17.00;99.90;;;;;;5030754;28;20227;-79
2022/05/27 06:39:54;;;;;;;3.40;2.43;;;17.00;99.90;;;;;;5024223;28;20340;-79
2022/05/27 06:42:22;;;;;;;2.40;2.20;;;17.00;99.90;;;;;;5020742;28;20196;-83
2022/05/27 06:44:48;;;;;;;3.50;2.43;;;17.10;99.90;;;;;;5030282;28;20222;-79
2022/05/27 06:47:15;;;;;;;1.90;1.80;;;17.20;99.90;;;;;;5027004;28;20200;-79
2022/05/27 06:49:43;;;;;;;4.23;2.50;;;17.30;99.90;;;;;;5024816;28;20285;-78
2022/05/27 06:52:11;;;;;;;2.40;2.17;;;17.40;99.90;;;;;;5018310;28;20572;-77
2022/05/27 06:54:38;;;;;;;2.20;2.00;;;17.60;99.90;;;;;;5021282;28;20254;-79
2022/05/27 06:57:07;;;;;;;2.63;2.23;;;17.80;99.90;;;;;;5018706;28;20248;-79
2022/05/27 06:59:35;;;;;;;3.70;2.40;;;17.90;99.90;;;;;;5025003;28;20184;-79
2022/05/27 07:02:04;;;;;;;3.07;2.80;;;17.90;99.90;;;;;;5022816;28;20211;-79
2022/05/27 07:04:30;;;;;;;2.33;2.13;;;18.30;99.90;;;;;;5017901;28;20222;-78
2022/05/27 07:06:58;;;;;;;2.50;2.30;;;19.60;99.90;;;;;;5019208;28;20198;-79
2022/05/27 07:09:25;;;;;;;4.40;3.90;;;20.80;99.90;;;;;;5021411;28;20230;-80
2022/05/27 07:11:56;;;;;;;4.00;3.60;;;21.20;99.90;;;;;;5022748;28;20250;-80
2022/05/27 07:14:24;;;;;;;5.40;5.00;;;21.10;99.90;;;;;;5022878;28;20299;-78
2022/05/27 07:16:51;;;;;;;4.23;3.93;;;20.80;99.90;;;;;;5023938;28;20196;-78
2022/05/27 07:19:19;;;;;;;4.63;4.33;;;20.50;99.90;;;;;;5024710;28;20714;-78
2022/05/27 07:21:47;;;;;;;2.80;2.50;;;20.30;99.90;;;;;;5019044;28;20287;-78
2022/05/27 07:24:18;;;;;;;4.17;3.87;;;20.00;99.90;;;;;;5018771;28;20224;-78
2022/05/27 07:26:46;;;;;;;5.33;2.23;;;19.70;99.90;;;;;;5021867;28;20199;-76
2022/05/27 07:29:13;;;;;;;5.70;5.30;;;19.50;99.90;;;;;;5022374;28;20255;-78
2022/05/27 07:31:44;;;;;;;2.77;2.10;;;19.30;99.90;;;;;;5025186;28;20210;-78
2022/05/27 07:34:11;;;;;;;5.83;5.40;;;19.10;99.90;;;;;;5022332;28;20634;-76
2022/05/27 07:36:38;;;;;;;3.20;2.23;;;19.00;99.90;;;;;;5019128;28;20772;-77
2022/05/27 07:39:05;;;;;;;5.60;5.10;;;18.80;99.90;;;;;;5024384;28;20223;-78
2022/05/27 07:41:33;;;;;;;3.90;2.73;;;18.70;99.90;;;;;;5018524;28;20210;-78
2022/05/27 07:44:01;;;;;;;2.77;2.07;;;18.60;99.90;;;;;;5019885;28;20294;-79
2022/05/27 07:46:39;;;;;;;3.10;2.87;;;18.60;99.90;;;;;;5013483;28;20604;-80
2022/05/27 07:49:07;;;;;;;5.80;5.40;;;18.60;99.90;;;;;;5027145;28;20210;-78
2022/05/27 07:55:15;;;;;;;5.50;5.10;;;18.50;99.90;;;;;;4983550;28;20222;-82
2022/05/27 07:57:43;;;;;;;2.47;2.10;;;18.50;99.90;;;;;;5023853;28;20252;-78
2022/05/27 08:00:15;;;;;;;4.80;4.40;;;18.50;99.90;;;;;;5021602;28;20620;-81
2022/05/27 08:02:42;;;;;;;4.57;4.27;;;18.50;99.90;;;;;;5007034;28;20956;-78
2022/05/27 08:05:14;;;;;;;5.60;5.20;;;18.40;99.90;;;;;;5022485;28;20217;-77
2022/05/27 08:07:40;;;;;;;5.60;5.20;;;18.40;99.90;;;;;;5012591;28;20672;-78
2022/05/27 08:10:09;;;;;;;5.07;4.67;;;18.50;99.90;;;;;;5020305;28;20217;-78
2022/05/27 08:12:36;;;;;;;5.00;4.60;;;18.40;99.90;;;;;;5019241;28;20729;-78
2022/05/27 08:15:03;;;;;;;5.23;4.90;;;18.40;99.90;;;;;;5023139;28;20221;-77
2022/05/27 08:17:30;;;;;;;4.90;4.50;;;18.50;99.90;;;;;;5018655;28;20202;-78
2022/05/27 08:19:57;;;;;;;5.20;4.50;;;18.70;99.90;;;;;;5018336;28;20677;-78
2022/05/27 08:22:26;;;;;;;4.97;4.50;;;19.00;99.90;;;;;;5020607;28;20673;-78
2022/05/27 08:24:52;;;;;;;3.03;2.77;;;19.10;99.90;;;;;;5019821;28;20303;-78
2022/05/27 08:27:19;;;;;;;4.20;3.47;;;19.20;99.90;;;;;;5020940;28;20230;-78
2022/05/27 08:29:46;;;;;;;3.47;3.20;;;19.20;99.90;;;;;;5022998;28;20210;-77
2022/05/27 08:32:13;;;;;;;3.70;3.40;;;19.30;99.90;;;;;;5023234;28;20614;-78
2022/05/27 08:40:22;;;;;;;5.70;5.20;;;19.60;99.90;;;;;;5017889;28;20203;-78
2022/05/27 08:42:58;;;;;;;3.93;3.00;;;19.70;99.90;;;;;;5014172;28;20195;-78
2022/05/27 08:45:32;;;;;;;3.90;3.70;;;19.70;99.90;;;;;;5021315;28;20257;-78
2022/05/27 08:48:02;;;;;;;6.70;6.20;;;19.50;99.90;;;;;;5022215;28;20569;-78
2022/05/27 08:50:36;;;;;;;3.13;2.83;;;19.70;99.90;;;;;;5023374;28;20199;-78
2022/05/27 08:53:14;;;;;;;3.10;2.80;;;19.70;99.90;;;;;;5021218;28;20203;-77
2022/05/27 09:01:22;;;;;;;2.60;2.20;;;20.00;99.90;;;;;;5020695;28;20280;-78
2022/05/27 09:03:55;;;;;;;4.60;3.77;;;20.00;99.90;;;;;;5024608;28;20234;-78
2022/05/27 09:06:32;;;;;;;3.57;2.60;;;19.80;99.90;;;;;;5014739;28;20688;-78
2022/05/27 09:09:01;;;;;;;3.73;2.90;;;19.70;99.90;;;;;;5023943;28;20253;-78
2022/05/27 09:11:36;;;;;;;6.37;3.70;;;19.50;99.90;;;;;;5018751;28;20224;-78
2022/05/27 09:14:12;;;;;;;5.43;5.03;;;19.40;99.90;;;;;;5019483;28;20919;-78
2022/05/27 09:16:46;;;;;;;2.47;2.27;;;19.20;99.90;;;;;;5011530;28;20262;-78
2022/05/27 09:19:19;;;;;;;3.33;3.13;;;19.00;99.90;;;;;;5019524;28;20194;-78
2022/05/27 09:22:02;;;;;;;5.47;5.13;;;19.00;99.90;;;;;;5020263;28;20597;-78
2022/05/27 09:24:48;;;;;;;3.80;2.33;;;19.00;99.90;;;;;;5020373;28;20280;-78
2022/05/27 09:27:20;;;;;;;3.27;2.20;;;19.10;99.90;;;;;;5020209;28;20641;-78
2022/05/27 09:29:57;;;;;;;4.63;4.10;;;19.50;99.90;;;;;;5018975;28;20215;-78
2022/05/27 09:32:31;;;;;;;5.93;5.33;;;19.80;99.90;;;;;;5023589;28;20209;-78
2022/05/27 09:35:03;;;;;;;4.07;2.37;;;20.30;99.90;;;;;;5021546;28;20733;-78
2022/05/27 09:37:38;;;;;;;4.07;3.77;;;21.10;99.90;;;;;;5017244;28;20200;-78
2022/05/27 09:40:12;;;;;;;4.90;3.87;;;22.00;99.90;;;;;;5023776;28;20245;-78
2022/05/27 09:42:44;;;;;;;5.43;4.93;;;22.10;99.90;;;;;;5011242;28;20238;-78
2022/05/27 09:45:12;;;;;;;4.67;4.37;;;22.10;99.90;;;;;;5027477;28;20216;-79
2022/05/27 09:47:40;;;;;;;4.07;3.73;;;22.20;99.90;;;;;;5016001;28;20189;-81
2022/05/27 09:50:11;;;;;;;5.43;5.03;;;22.20;99.90;;;;;;5019654;28;20216;-81
2022/05/27 09:52:41;;;;;;;5.00;4.70;;;22.00;99.90;;;;;;5010433;28;20196;-81
2022/05/27 09:55:23;;;;;;;5.70;5.30;;;22.00;99.90;;;;;;5020688;28;20249;-81
2022/05/27 09:58:01;;;;;;;4.83;4.43;;;22.10;99.90;;;;;;5014801;28;20188;-80
2022/05/27 10:00:50;;;;;;;5.70;5.20;;;22.30;99.90;;;;;;5020675;28;20242;-80
2022/05/27 10:03:33;;;;;;;4.50;4.20;;;22.20;99.90;;;;;;5018325;28;20203;-80
2022/05/27 10:06:02;;;;;;;4.57;4.20;;;21.90;99.90;;;;;;5019416;28;20273;-80
2022/05/27 10:08:34;;;;;;;3.60;2.30;;;21.80;99.90;;;;;;5019319;28;20203;-80
2022/05/27 10:11:11;;;;;;;3.50;3.13;;;21.60;99.90;;;;;;5023290;28;20262;-80
2022/05/27 10:13:40;;;;;;;5.43;5.03;;;21.70;99.90;;;;;;5018157;28;20216;-80
2022/05/27 10:16:11;;;;;;;3.60;3.30;;;22.20;99.90;;;;;;5029125;28;20200;-80
2022/05/27 10:18:38;;;;;;;5.80;5.40;;;22.80;99.90;;;;;;5018102;28;20668;-81
2022/05/27 10:21:11;;;;;;;2.13;1.90;;;23.00;99.90;;;;;;5029311;28;20200;-80
2022/05/27 10:23:40;;;;;;;5.37;5.07;;;23.30;99.90;;;;;;5021669;28;20219;-82
2022/05/27 10:26:22;;;;;;;6.17;5.67;;;23.40;99.90;;;;;;5022309;28;20207;-82
2022/05/27 10:28:58;;;;;;;5.70;5.30;;;23.40;99.90;;;;;;5022906;28;20242;-80
2022/05/27 10:31:24;;;;;;;5.00;4.70;;;23.10;99.90;;;;;;5030591;28;20660;-79
2022/05/27 10:33:53;;;;;;;5.70;5.30;;;22.70;99.90;;;;;;5025681;28;20293;-81
2022/05/27 10:36:45;;;;;;;5.73;5.33;;;22.70;99.90;;;;;;5023762;28;20215;-80
2022/05/27 10:39:18;;;;;;;5.53;5.13;;;22.50;99.90;;;;;;5016434;28;20608;-81
2022/05/27 10:41:59;;;;;;;5.60;5.20;;;22.50;99.90;;;;;;5018987;28;20273;-81
2022/05/27 10:44:39;;;;;;;5.60;5.20;;;22.70;99.90;;;;;;5025387;28;20223;-81
2022/05/27 10:47:15;;;;;;;5.30;4.90;;;22.60;99.90;;;;;;5033524;28;20195;-82
2022/05/27 10:49:57;;;;;;;5.27;4.90;;;22.20;99.90;;;;;;5018933;28;20212;-81
2022/05/27 10:52:50;;;;;;;5.23;4.90;;;22.20;99.90;;;;;;5024999;28;20239;-82
2022/05/27 10:55:22;;;;;;;5.77;5.40;;;22.30;99.90;;;;;;5017370;28;20215;-82
2022/05/27 11:04:53;;;;;;;;;;;;;;;;;;;;;
2022/05/27 11:07:36;;;;;;;5.00;4.70;;;23.10;99.90;;;;;;4932091;28;20203;-82
2022/05/27 11:10:27;;;;;;;5.53;5.10;;;23.00;99.90;;;;;;4942930;29;20222;-81
2022/05/27 11:16:10;;;;;;;5.50;5.10;;;23.20;99.90;;;;;;5027507;28;20199;-82
2022/05/27 11:18:58;;;;;;;5.17;4.80;;;22.80;99.90;;;;;;5015006;28;20649;-81
2022/05/27 11:21:43;;;;;;;5.20;4.90;;;22.80;99.90;;;;;;5037006;28;20207;-82
2022/05/27 11:24:37;;;;;;;5.20;4.90;;;23.00;99.90;;;;;;5018310;28;20228;-82
2022/05/27 11:27:14;;;;;;;5.27;4.90;;;23.40;99.90;;;;;;5021082;28;20200;-81
2022/05/27 11:30:02;;;;;;;5.13;4.83;;;23.50;99.90;;;;;;5015720;28;20215;-81
2022/05/27 11:33:01;;;;;;;5.30;5.00;;;23.50;99.90;;;;;;5021571;28;20207;-82
2022/05/27 11:35:59;;;;;;;5.47;4.93;;;23.60;99.90;;;;;;5023250;28;20275;-79
2022/05/27 11:38:50;;;;;;;5.40;5.00;;;23.70;99.90;;;;;;5019794;28;20207;-82
2022/05/27 11:41:24;;;;;;;5.17;4.83;;;23.70;99.90;;;;;;5027914;28;20199;-82
2022/05/27 11:44:02;;;;;;;5.30;5.00;;;23.60;99.90;;;;;;5025257;28;20219;-82
2022/05/27 11:46:42;;;;;;;5.47;5.07;;;23.50;99.90;;;;;;5018276;28;20196;-82
2022/05/27 11:49:36;;;;;;;7.13;5.00;;;23.30;99.90;;;;;;5024480;28;20262;-81
2022/05/27 11:52:26;;;;;;;5.77;5.33;;;23.40;99.90;;;;;;5014004;28;20297;-80
2022/05/27 11:55:09;;;;;;;5.10;4.80;;;23.70;99.90;;;;;;5018450;28;20714;-83
2022/05/27 11:57:46;;;;;;;5.07;4.77;;;23.60;99.90;;;;;;5023690;28;20258;-82
2022/05/27 12:00:17;;;;;;;5.70;5.20;;;23.40;99.90;;;;;;5024042;28;20227;-82
2022/05/27 12:02:53;;;;;;;4.83;4.60;;;23.10;99.90;;;;;;5020870;28;20238;-81
2022/05/27 12:05:26;;;;;;;5.00;4.70;;;22.70;99.90;;;;;;5026190;28;20223;-82
2022/05/27 12:07:59;;;;;;;4.80;4.50;;;22.70;99.90;;;;;;5030005;28;20196;-81
2022/05/27 12:10:31;;;;;;;5.33;4.93;;;22.80;99.90;;;;;;5014306;28;20259;-81
2022/05/27 12:13:05;;;;;;;5.30;5.00;;;22.80;99.90;;;;;;5024691;28;20210;-82
2022/05/27 12:15:38;;;;;;;5.60;4.90;;;22.80;99.90;;;;;;5021697;28;20233;-82
2022/05/27 12:18:10;;;;;;;5.30;5.00;;;22.60;99.90;;;;;;5027483;28;20618;-80
2022/05/27 12:20:40;;;;;;;5.53;5.20;;;22.30;99.90;;;;;;5026216;28;20250;-81
2022/05/27 12:23:11;;;;;;;4.70;4.50;;;22.20;99.90;;;;;;5031755;28;20199;-80
2022/05/27 12:25:43;;;;;;;4.23;3.93;;;22.10;99.90;;;;;;5015570;28;20204;-80
2022/05/27 12:28:10;;;;;;;4.53;4.13;;;22.00;99.90;;;;;;5021564;28;20188;-82
2022/05/27 12:30:41;;;;;;;5.23;4.73;;;22.00;99.90;;;;;;5018541;28;20259;-80
2022/05/27 12:33:12;;;;;;;5.80;5.30;;;22.00;99.90;;;;;;5024341;28;20206;-80
2022/05/27 12:35:47;;;;;;;5.53;5.00;;;22.00;99.90;;;;;;5004763;28;20658;-80
2022/05/27 12:38:16;;;;;;;5.40;5.00;;;22.00;99.90;;;;;;5008211;28;20224;-80
2022/05/27 12:40:47;;;;;;;5.10;4.80;;;22.00;99.90;;;;;;5022655;28;20602;-80
2022/05/27 12:43:23;;;;;;;4.70;4.40;;;22.10;99.90;;;;;;5025780;28;20196;-80
2022/05/27 12:45:53;;;;;;;5.07;4.77;;;22.20;99.90;;;;;;5023460;28;20738;-80
2022/05/27 12:48:36;;;;;;;5.40;5.00;;;22.30;99.90;;;;;;5021972;28;20200;-81
2022/05/27 12:51:06;;;;;;;5.10;4.70;;;22.40;99.90;;;;;;5016834;28;20643;-81
2022/05/27 12:53:52;;;;;;;5.27;4.90;;;22.30;99.90;;;;;;5027443;28;20696;-80
2022/05/27 13:03:05;;;;;;;1.83;1.73;;;22.60;99.90;;;;;;5028212;28;20195;-79
2022/05/27 13:10:11;;;;;;;5.50;5.10;;;22.40;99.90;;;;;;4977489;28;20224;-81
2022/05/27 13:51:11;;;;;;;4.10;3.87;;;23.50;99.90;;;;;;4865992;29;20252;-79
2022/05/27 14:08:44;;;;;;;3.40;3.13;;;21.90;99.90;;;;;;4914668;28;20232;-78
2022/05/27 14:11:38;;;;;;;1.90;1.80;;;21.40;99.90;;;;;;4996474;28;20225;-79
2022/05/27 14:14:41;;;;;;;5.57;5.23;;;21.30;99.90;;;;;;4993332;28;20232;-81
2022/05/27 14:17:13;;;;;;;5.63;5.03;;;21.10;99.90;;;;;;4978928;28;20251;-80
2022/05/27 14:19:40;;;;;;;5.40;5.00;;;21.00;99.90;;;;;;4995774;28;20205;-80
2022/05/27 14:25:10;;;;;;;2.53;2.37;;;21.00;99.90;;;;;;4988441;28;20735;-80
2022/05/27 14:27:43;;;;;;;2.67;2.47;;;20.80;99.90;;;;;;5001499;28;20199;-80
2022/05/27 14:30:15;;;;;;;1.70;1.60;;;20.80;99.90;;;;;;4989296;28;20213;-80
2022/05/27 14:32:42;;;;;;;1.87;1.77;;;20.60;99.90;;;;;;5007153;28;20211;-80
2022/05/27 14:35:12;;;;;;;4.90;4.60;;;20.60;99.90;;;;;;4990327;28;20749;-79
2022/05/27 14:37:47;;;;;;;5.47;5.07;;;20.50;99.90;;;;;;4992646;28;20215;-80
2022/05/27 14:40:26;;;;;;;3.17;1.80;;;20.40;99.90;;;;;;4995250;28;20248;-80
2022/05/27 14:42:58;;;;;;;1.97;1.87;;;20.40;99.90;;;;;;4998795;28;20755;-81
2022/05/27 14:45:48;;;;;;;1.83;1.73;;;20.30;99.90;;;;;;4997835;28;20224;-79
2022/05/27 14:48:35;;;;;;;6.07;5.47;;;20.30;99.90;;;;;;4992300;28;20205;-78
2022/05/27 14:51:20;;;;;;;2.40;2.00;;;20.10;99.90;;;;;;4996063;28;20233;-78
2022/05/27 14:53:48;;;;;;;2.33;1.90;;;20.00;99.90;;;;;;4997861;28;20282;-78
2022/05/27 14:56:23;;;;;;;2.40;1.70;;;19.90;99.90;;;;;;4995277;28;20212;-78
2022/05/27 14:58:50;;;;;;;1.70;1.60;;;19.90;99.90;;;;;;4998260;28;20292;-78
2022/05/27 15:01:29;;;;;;;1.97;1.70;;;19.90;99.90;;;;;;4993792;28;20286;-77